Time;durP1;ratioP1;P1;durP2;ratioP2;P2;SDS_P1;SDS_P2;PMS_P1;PMS_P2;Temp;Humidity;BMP_temperature;BMP_pressure;BME280_temperature;BME280_humidity;BME280_pressure;Samples;Min_cycle;Max_cycle;Signal;HPM_P1;HPM_P2
2020/12/25 00:00:38;;;;;;;9.02;4.70;;;5.30;1.00;;;;;;4997640;28;20227;-73
2020/12/25 00:03:04;;;;;;;7.65;4.45;;;5.30;1.00;;;;;;4989919;28;20311;-72
2020/12/25 00:05:30;;;;;;;4.30;3.90;;;5.30;1.00;;;;;;4988187;28;20217;-72
2020/12/25 00:07:57;;;;;;;5.85;5.25;;;5.30;1.00;;;;;;4986195;28;21093;-72
2020/12/25 00:10:23;;;;;;;8.07;4.65;;;5.30;1.00;;;;;;4989576;28;20231;-73
2020/12/25 00:12:50;;;;;;;6.75;4.85;;;5.40;1.00;;;;;;4989001;28;20906;-73
2020/12/25 00:15:16;;;;;;;6.72;4.80;;;5.40;1.00;;;;;;4988405;28;20375;-73
2020/12/25 00:17:42;;;;;;;7.75;4.40;;;5.30;1.00;;;;;;4986924;28;20295;-73
2020/12/25 00:20:08;;;;;;;8.75;5.32;;;5.40;1.00;;;;;;4986484;28;20311;-73
2020/12/25 00:22:34;;;;;;;5.85;4.93;;;5.40;1.00;;;;;;4981806;28;20262;-73
2020/12/25 00:25:01;;;;;;;5.60;5.05;;;5.30;1.00;;;;;;4993525;28;21031;-73
2020/12/25 00:27:27;;;;;;;4.90;4.40;;;5.40;1.00;;;;;;4989153;28;20315;-73
2020/12/25 00:29:54;;;;;;;5.13;3.83;;;5.40;1.00;;;;;;4989956;28;20230;-72
2020/12/25 00:32:20;;;;;;;4.40;3.97;;;5.30;1.00;;;;;;4989824;28;20247;-72
2020/12/25 00:34:46;;;;;;;5.25;4.03;;;5.30;1.00;;;;;;4987493;28;20294;-72
2020/12/25 00:37:12;;;;;;;6.53;3.90;;;5.40;1.00;;;;;;4985980;28;20686;-72
2020/12/25 00:39:39;;;;;;;4.82;4.35;;;5.40;1.00;;;;;;4988541;28;20227;-75
2020/12/25 00:42:06;;;;;;;5.75;3.72;;;5.40;1.00;;;;;;4985786;28;20228;-72
2020/12/25 00:44:32;;;;;;;7.40;4.70;;;5.40;1.00;;;;;;4979798;28;20283;-72
2020/12/25 00:46:59;;;;;;;6.85;4.05;;;5.30;1.00;;;;;;4984631;28;20238;-72
2020/12/25 00:49:25;;;;;;;5.57;4.13;;;5.30;1.00;;;;;;4983880;28;20230;-72
2020/12/25 00:51:51;;;;;;;6.57;3.90;;;5.40;1.00;;;;;;4982105;28;20242;-72
2020/12/25 00:54:17;;;;;;;6.40;4.22;;;5.40;1.00;;;;;;4991891;28;20652;-73
2020/12/25 00:56:44;;;;;;;5.18;3.88;;;5.30;1.00;;;;;;4988826;28;21075;-72
2020/12/25 00:59:11;;;;;;;7.70;3.92;;;5.30;1.00;;;;;;4985947;28;20230;-72
2020/12/25 01:01:37;;;;;;;5.28;4.70;;;5.40;1.00;;;;;;4983758;28;20254;-72
2020/12/25 01:04:04;;;;;;;4.40;3.40;;;5.30;1.00;;;;;;4985153;28;20259;-72
2020/12/25 01:06:30;;;;;;;6.50;3.72;;;5.40;1.00;;;;;;4987400;28;20917;-73
2020/12/25 01:08:56;;;;;;;6.57;3.97;;;5.40;1.00;;;;;;4983940;28;20973;-73
2020/12/25 01:11:26;;;;;;;4.15;3.72;;;5.40;1.00;;;;;;4987336;28;20283;-73
2020/12/25 01:13:52;;;;;;;4.57;4.07;;;5.40;1.00;;;;;;4983343;28;20278;-72
2020/12/25 01:16:19;;;;;;;5.35;3.30;;;5.40;1.00;;;;;;4989025;28;20231;-74
2020/12/25 01:18:46;;;;;;;4.22;3.83;;;5.40;1.00;;;;;;4985493;28;20338;-73
2020/12/25 01:21:13;;;;;;;4.35;3.50;;;5.40;1.00;;;;;;4979126;28;20224;-72
2020/12/25 01:23:40;;;;;;;4.60;4.10;;;5.30;1.00;;;;;;4982174;28;20346;-72
2020/12/25 01:26:06;;;;;;;4.65;4.20;;;5.30;1.00;;;;;;4982523;28;21390;-72
2020/12/25 01:28:33;;;;;;;5.00;4.28;;;5.40;1.00;;;;;;4986318;28;20232;-72
2020/12/25 01:31:02;;;;;;;4.05;3.20;;;5.30;1.00;;;;;;4980810;28;20723;-72
2020/12/25 01:33:29;;;;;;;4.00;2.88;;;5.30;1.00;;;;;;4979693;28;20299;-72
2020/12/25 01:35:56;;;;;;;4.80;3.60;;;5.30;1.00;;;;;;4981652;28;21031;-72
2020/12/25 01:38:22;;;;;;;4.15;3.65;;;5.30;1.00;;;;;;4981567;28;20227;-73
2020/12/25 01:40:48;;;;;;;5.75;3.17;;;5.30;1.00;;;;;;4974876;28;20753;-74
2020/12/25 01:43:15;;;;;;;3.92;3.63;;;5.30;1.00;;;;;;4987874;28;20363;-73
2020/12/25 01:45:41;;;;;;;4.10;3.70;;;5.30;1.00;;;;;;4998744;28;20255;-72
2020/12/25 01:48:07;;;;;;;4.80;3.25;;;5.20;1.00;;;;;;4997358;28;20295;-72
2020/12/25 01:50:36;;;;;;;4.82;3.90;;;5.30;1.00;;;;;;5000028;28;20351;-72
2020/12/25 01:53:04;;;;;;;4.60;3.90;;;5.30;1.00;;;;;;5007782;28;20322;-75
2020/12/25 01:55:32;;;;;;;3.22;2.70;;;5.30;1.00;;;;;;5012444;28;20242;-74
2020/12/25 01:58:00;;;;;;;3.95;2.88;;;5.30;1.00;;;;;;5008673;28;20254;-72
2020/12/25 02:00:28;;;;;;;3.45;2.65;;;5.30;1.00;;;;;;5006991;28;20327;-72
2020/12/25 02:02:55;;;;;;;2.75;2.55;;;5.20;1.00;;;;;;5009048;28;20259;-73
2020/12/25 02:05:21;;;;;;;2.65;2.40;;;5.20;1.00;;;;;;5008673;28;20219;-73
2020/12/25 02:07:49;;;;;;;2.00;1.80;;;5.20;1.00;;;;;;4992863;28;20265;-72
2020/12/25 02:10:15;;;;;;;2.80;2.30;;;5.20;1.00;;;;;;4995733;28;20231;-72
2020/12/25 02:12:43;;;;;;;2.00;1.60;;;5.10;1.00;;;;;;4987190;28;20241;-73
2020/12/25 02:15:10;;;;;;;2.55;1.88;;;5.10;1.00;;;;;;4994111;28;20233;-72
2020/12/25 02:17:43;;;;;;;3.13;2.00;;;5.10;1.00;;;;;;4990270;28;20234;-73
2020/12/25 02:20:09;;;;;;;2.28;1.95;;;5.10;1.00;;;;;;4985860;28;20231;-73
2020/12/25 02:22:36;;;;;;;3.35;1.95;;;5.10;1.00;;;;;;4988153;28;20258;-76
2020/12/25 02:25:03;;;;;;;4.25;1.67;;;5.10;1.00;;;;;;4984881;28;20224;-74
2020/12/25 02:27:29;;;;;;;4.18;1.88;;;5.10;1.00;;;;;;4989883;28;20302;-74
2020/12/25 02:29:55;;;;;;;2.97;1.95;;;5.10;1.00;;;;;;4982014;28;23842;-73
2020/12/25 02:32:21;;;;;;;2.55;1.48;;;5.00;1.00;;;;;;4990444;28;21064;-72
2020/12/25 02:34:48;;;;;;;3.58;1.50;;;5.00;1.00;;;;;;4985276;28;20306;-72
2020/12/25 02:37:14;;;;;;;2.25;1.65;;;5.00;1.00;;;;;;4984761;28;20231;-73
2020/12/25 02:39:41;;;;;;;1.52;1.30;;;4.90;1.00;;;;;;4982132;28;20235;-72
2020/12/25 02:42:10;;;;;;;3.90;1.23;;;4.90;1.00;;;;;;4985592;28;20236;-73
2020/12/25 02:44:37;;;;;;;2.17;1.80;;;4.90;1.00;;;;;;4997342;28;20309;-72
2020/12/25 02:47:03;;;;;;;4.13;1.55;;;4.80;1.00;;;;;;4984837;28;20251;-72
2020/12/25 02:49:30;;;;;;;3.42;1.70;;;4.90;1.00;;;;;;4984426;28;20266;-73
2020/12/25 02:51:56;;;;;;;2.00;1.17;;;4.80;1.00;;;;;;4985756;28;20239;-72
2020/12/25 02:54:22;;;;;;;1.58;1.48;;;4.80;1.00;;;;;;4986201;28;20227;-73
2020/12/25 02:56:49;;;;;;;1.60;1.05;;;4.80;1.00;;;;;;4987797;28;20340;-74
2020/12/25 02:59:15;;;;;;;2.60;1.02;;;4.80;1.00;;;;;;4992907;28;20220;-72
2020/12/25 03:01:41;;;;;;;1.98;1.30;;;4.80;1.00;;;;;;4999181;28;20310;-73
2020/12/25 03:04:08;;;;;;;1.90;1.58;;;4.80;1.00;;;;;;4991989;28;20227;-72
2020/12/25 03:06:35;;;;;;;1.40;1.30;;;4.70;1.00;;;;;;4997867;28;21062;-73
2020/12/25 03:09:01;;;;;;;1.85;1.10;;;4.80;1.00;;;;;;5004779;28;20247;-73
2020/12/25 03:11:27;;;;;;;1.95;1.50;;;4.80;1.00;;;;;;4996748;28;20261;-72
2020/12/25 03:13:54;;;;;;;2.35;1.27;;;4.80;1.00;;;;;;4999839;28;20374;-72
2020/12/25 03:16:20;;;;;;;2.72;1.10;;;4.70;1.00;;;;;;4996637;28;20307;-73
2020/12/25 03:18:46;;;;;;;1.40;1.30;;;4.70;1.00;;;;;;4992436;28;20232;-72
2020/12/25 03:21:12;;;;;;;1.13;0.95;;;4.80;1.00;;;;;;4988598;28;20235;-72
2020/12/25 03:23:38;;;;;;;1.70;1.23;;;4.70;1.00;;;;;;4984566;28;20228;-72
2020/12/25 03:26:05;;;;;;;2.00;1.30;;;4.70;1.00;;;;;;4991438;28;20220;-72
2020/12/25 03:28:31;;;;;;;2.15;1.58;;;4.70;1.00;;;;;;4981757;28;20899;-74
2020/12/25 03:30:58;;;;;;;3.70;1.30;;;4.70;1.00;;;;;;4987988;28;20227;-72
2020/12/25 03:33:24;;;;;;;1.40;0.93;;;4.70;1.00;;;;;;4982457;28;20251;-74
2020/12/25 03:35:51;;;;;;;1.20;1.00;;;4.70;1.00;;;;;;4988110;28;20323;-74
2020/12/25 03:38:17;;;;;;;2.05;1.15;;;4.80;1.00;;;;;;4978885;28;20223;-73
2020/12/25 03:40:43;;;;;;;2.60;1.30;;;4.80;1.00;;;;;;4986563;28;20248;-73
2020/12/25 03:43:09;;;;;;;2.70;1.27;;;4.70;1.00;;;;;;4980839;28;20231;-73
2020/12/25 03:45:36;;;;;;;0.95;0.85;;;4.60;1.00;;;;;;4982362;28;20728;-75
2020/12/25 03:48:03;;;;;;;1.90;1.42;;;4.60;1.00;;;;;;4985553;28;20658;-73
2020/12/25 03:50:29;;;;;;;1.98;1.38;;;4.60;1.00;;;;;;4981957;28;20232;-73
2020/12/25 03:52:56;;;;;;;2.00;1.40;;;4.60;1.00;;;;;;4979486;28;20237;-72
2020/12/25 03:55:22;;;;;;;1.85;1.33;;;4.60;1.00;;;;;;4986198;28;20228;-72
2020/12/25 03:57:48;;;;;;;2.60;0.90;;;4.60;1.00;;;;;;4984760;28;20710;-73
2020/12/25 04:00:15;;;;;;;1.70;1.00;;;4.60;1.00;;;;;;4986150;28;20254;-73
2020/12/25 04:02:41;;;;;;;1.63;0.98;;;4.70;1.00;;;;;;4980784;28;20236;-72
2020/12/25 04:05:08;;;;;;;1.60;1.08;;;4.70;1.00;;;;;;4985747;28;20228;-72
2020/12/25 04:07:35;;;;;;;1.55;1.10;;;4.70;1.00;;;;;;4978793;28;20316;-74
2020/12/25 04:10:01;;;;;;;1.42;1.20;;;4.70;1.00;;;;;;4982022;28;20772;-73
2020/12/25 04:12:27;;;;;;;2.50;1.20;;;4.70;1.00;;;;;;4983454;28;20322;-73
2020/12/25 04:14:53;;;;;;;2.78;1.25;;;4.70;1.00;;;;;;4978978;28;20753;-72
2020/12/25 04:17:19;;;;;;;1.75;0.90;;;4.80;1.00;;;;;;4983551;28;20226;-73
2020/12/25 04:19:45;;;;;;;2.22;1.40;;;4.70;1.00;;;;;;4981931;28;20228;-73
2020/12/25 04:22:13;;;;;;;2.75;1.42;;;4.60;1.00;;;;;;4981288;28;20235;-73
2020/12/25 04:24:39;;;;;;;1.90;1.08;;;4.60;1.00;;;;;;4979276;28;20333;-72
2020/12/25 04:27:05;;;;;;;1.00;0.80;;;4.60;1.00;;;;;;4984513;28;20275;-73
2020/12/25 04:29:31;;;;;;;2.58;0.90;;;4.60;1.00;;;;;;4981188;28;20227;-73
2020/12/25 04:31:57;;;;;;;2.33;1.83;;;4.70;1.00;;;;;;4991206;28;20302;-73
2020/12/25 04:34:23;;;;;;;2.33;1.23;;;4.70;1.00;;;;;;4985380;28;20220;-74
2020/12/25 04:36:50;;;;;;;2.75;1.00;;;4.70;1.00;;;;;;4981167;28;20341;-73
2020/12/25 04:39:17;;;;;;;1.50;1.00;;;4.70;1.00;;;;;;4984230;28;20670;-73
2020/12/25 04:41:43;;;;;;;2.25;1.30;;;4.70;1.00;;;;;;4983661;28;20227;-72
2020/12/25 04:44:09;;;;;;;2.13;1.00;;;4.60;1.00;;;;;;4986172;28;20247;-72
2020/12/25 04:46:35;;;;;;;1.50;1.08;;;4.60;1.00;;;;;;4990729;28;21572;-73
2020/12/25 04:49:02;;;;;;;2.35;1.40;;;4.60;1.00;;;;;;4979888;28;20711;-75
2020/12/25 04:51:28;;;;;;;1.88;0.90;;;4.60;1.00;;;;;;4983690;28;20334;-72
2020/12/25 04:53:55;;;;;;;1.98;1.42;;;4.60;1.00;;;;;;4985922;28;20216;-76
2020/12/25 04:56:23;;;;;;;2.08;1.80;;;4.60;1.00;;;;;;4987917;28;20302;-73
2020/12/25 04:58:50;;;;;;;3.30;1.58;;;4.60;1.00;;;;;;4979424;28;20228;-73
2020/12/25 05:01:18;;;;;;;2.60;1.40;;;4.60;1.00;;;;;;4991981;28;20238;-73
2020/12/25 05:03:45;;;;;;;3.28;1.20;;;4.60;1.00;;;;;;5001815;28;20274;-73
2020/12/25 05:06:13;;;;;;;3.55;1.23;;;4.60;1.00;;;;;;5008101;28;20283;-72
2020/12/25 05:08:41;;;;;;;5.47;1.75;;;4.50;1.00;;;;;;5001647;28;20231;-73
2020/12/25 05:11:09;;;;;;;1.73;1.40;;;4.50;1.00;;;;;;5006666;28;20227;-73
2020/12/25 05:13:43;;;;;;;3.15;1.88;;;4.40;1.00;;;;;;5002526;28;20302;-73
2020/12/25 05:16:10;;;;;;;1.75;1.13;;;4.30;1.00;;;;;;4987435;28;20231;-72
2020/12/25 05:18:41;;;;;;;3.10;1.42;;;4.30;1.00;;;;;;4983676;28;20223;-74
2020/12/25 05:21:10;;;;;;;1.55;1.25;;;4.30;1.00;;;;;;4978176;28;20289;-74
2020/12/25 05:23:37;;;;;;;1.60;1.48;;;4.20;1.00;;;;;;4988492;28;20230;-73
2020/12/25 05:26:05;;;;;;;1.67;1.40;;;4.20;1.00;;;;;;4978846;28;20220;-74
2020/12/25 05:28:33;;;;;;;2.95;2.50;;;4.10;1.00;;;;;;4981360;28;20298;-73
2020/12/25 05:31:01;;;;;;;1.98;1.00;;;4.10;1.00;;;;;;4987337;28;20327;-73
2020/12/25 05:33:27;;;;;;;1.23;1.10;;;4.10;1.00;;;;;;4986116;28;20261;-73
2020/12/25 05:35:55;;;;;;;2.45;1.50;;;4.10;1.00;;;;;;4981944;28;20751;-73
2020/12/25 05:38:22;;;;;;;2.40;1.45;;;4.10;1.00;;;;;;4981873;28;20223;-73
2020/12/25 05:40:50;;;;;;;1.90;1.45;;;4.10;1.00;;;;;;4984995;28;20318;-73
2020/12/25 05:43:18;;;;;;;3.25;1.35;;;4.00;1.00;;;;;;4974387;28;20243;-73
2020/12/25 05:45:45;;;;;;;3.15;1.65;;;4.00;1.00;;;;;;4982545;28;20224;-73
2020/12/25 05:48:12;;;;;;;3.13;2.00;;;4.10;1.00;;;;;;4982200;28;20270;-74
2020/12/25 05:50:39;;;;;;;1.98;1.45;;;4.10;1.00;;;;;;4992014;28;20236;-73
2020/12/25 05:53:06;;;;;;;2.38;1.40;;;4.00;1.00;;;;;;4981679;28;20322;-73
2020/12/25 05:55:33;;;;;;;1.73;1.20;;;4.00;1.00;;;;;;4978907;28;20666;-73
2020/12/25 05:58:00;;;;;;;1.90;1.10;;;4.00;1.00;;;;;;4982935;28;20223;-73
2020/12/25 06:00:28;;;;;;;1.85;1.30;;;3.90;1.00;;;;;;4981732;28;20753;-73
2020/12/25 06:02:55;;;;;;;1.70;1.40;;;3.90;1.00;;;;;;4981761;28;20224;-73
2020/12/25 06:05:24;;;;;;;1.88;1.30;;;3.90;1.00;;;;;;4982226;28;20310;-74
2020/12/25 06:07:53;;;;;;;3.15;1.52;;;4.00;1.00;;;;;;4979519;28;20230;-74
2020/12/25 06:10:21;;;;;;;1.50;1.30;;;4.00;1.00;;;;;;4980233;28;20985;-73
2020/12/25 06:12:48;;;;;;;1.90;1.50;;;4.00;1.00;;;;;;4976972;28;20236;-73
2020/12/25 06:15:21;;;;;;;1.45;1.35;;;4.00;1.00;;;;;;4979240;28;20219;-73
2020/12/25 06:18:01;;;;;;;2.97;1.13;;;4.00;1.00;;;;;;4982391;28;20320;-73
2020/12/25 06:20:35;;;;;;;3.38;1.23;;;4.00;1.00;;;;;;4979312;28;20622;-74
2020/12/25 06:23:04;;;;;;;5.22;1.20;;;4.00;1.00;;;;;;4999285;28;20227;-74
2020/12/25 06:25:32;;;;;;;1.63;1.10;;;4.00;1.00;;;;;;4981679;28;20226;-73
2020/12/25 06:28:00;;;;;;;1.23;1.10;;;4.00;1.00;;;;;;4984235;28;20291;-73
2020/12/25 06:30:28;;;;;;;1.88;1.40;;;3.90;1.00;;;;;;4982500;28;20238;-73
2020/12/25 06:32:55;;;;;;;1.45;1.35;;;3.90;1.00;;;;;;4985491;28;20326;-72
2020/12/25 06:35:30;;;;;;;1.10;1.00;;;3.90;1.00;;;;;;4983194;28;20266;-73
2020/12/25 06:37:56;;;;;;;1.45;1.35;;;3.90;1.00;;;;;;4977826;28;20337;-73
2020/12/25 06:40:24;;;;;;;1.40;1.27;;;3.90;1.00;;;;;;4984143;28;20319;-74
2020/12/25 06:42:54;;;;;;;1.65;1.55;;;3.80;1.00;;;;;;4983768;28;20797;-73
2020/12/25 06:45:27;;;;;;;4.63;1.95;;;3.90;1.00;;;;;;4985027;28;20326;-72
2020/12/25 06:48:10;;;;;;;3.35;1.60;;;3.80;1.00;;;;;;4984519;28;20219;-73
2020/12/25 06:50:44;;;;;;;4.00;1.70;;;3.80;1.00;;;;;;4982952;28;21073;-73
2020/12/25 06:53:11;;;;;;;2.70;1.58;;;3.80;1.00;;;;;;4986053;28;20234;-72
2020/12/25 06:55:42;;;;;;;2.65;2.03;;;3.80;1.00;;;;;;4993316;28;20315;-72
2020/12/25 06:58:09;;;;;;;3.42;1.33;;;3.80;1.00;;;;;;5009938;28;20295;-73
2020/12/25 07:00:35;;;;;;;1.70;1.38;;;3.90;1.00;;;;;;4998652;28;20306;-74
2020/12/25 07:03:11;;;;;;;2.38;1.50;;;3.80;1.00;;;;;;4990776;28;20247;-72
2020/12/25 07:05:46;;;;;;;2.05;1.73;;;3.70;1.00;;;;;;4983619;28;20246;-74
2020/12/25 07:08:27;;;;;;;2.40;1.80;;;3.70;1.00;;;;;;4986905;28;20311;-73
2020/12/25 07:11:00;;;;;;;1.75;1.50;;;3.70;1.00;;;;;;4984919;28;20270;-72
2020/12/25 07:13:26;;;;;;;3.13;1.60;;;3.70;1.00;;;;;;4983859;28;20290;-72
2020/12/25 07:15:53;;;;;;;3.65;1.90;;;3.70;1.00;;;;;;4980342;28;20238;-73
2020/12/25 07:18:19;;;;;;;2.63;2.42;;;3.70;1.00;;;;;;4986631;28;20230;-72
2020/12/25 07:20:46;;;;;;;2.50;2.15;;;3.70;1.00;;;;;;4983840;28;20278;-72
2020/12/25 07:23:13;;;;;;;2.47;1.85;;;3.70;1.00;;;;;;4985006;28;20230;-72
2020/12/25 07:25:41;;;;;;;2.08;1.88;;;3.70;1.00;;;;;;4991117;28;20250;-72
2020/12/25 07:28:08;;;;;;;1.98;1.65;;;3.60;1.00;;;;;;4988518;28;20230;-73
2020/12/25 07:30:35;;;;;;;2.63;2.30;;;3.60;1.00;;;;;;5000258;28;20220;-73
2020/12/25 07:33:03;;;;;;;2.33;1.50;;;3.60;1.00;;;;;;4990132;28;20734;-72
2020/12/25 07:35:30;;;;;;;2.28;1.80;;;3.60;1.00;;;;;;4984531;28;20974;-73
2020/12/25 07:37:57;;;;;;;3.35;1.60;;;3.60;1.00;;;;;;4983713;28;20732;-73
2020/12/25 07:40:23;;;;;;;2.30;1.70;;;3.60;1.00;;;;;;4975750;28;20224;-73
2020/12/25 07:42:50;;;;;;;2.20;1.50;;;3.60;1.00;;;;;;4982077;28;20773;-73
2020/12/25 07:45:16;;;;;;;2.45;1.60;;;3.60;1.00;;;;;;4976363;28;20721;-72
2020/12/25 07:47:43;;;;;;;2.80;1.52;;;3.50;1.00;;;;;;4982521;28;20231;-72
2020/12/25 07:50:09;;;;;;;1.90;1.58;;;3.50;1.00;;;;;;4979851;28;21003;-73
2020/12/25 07:52:36;;;;;;;2.10;1.55;;;3.50;1.00;;;;;;4981801;28;20231;-73
2020/12/25 07:55:03;;;;;;;2.67;1.58;;;3.50;1.00;;;;;;4978345;28;20306;-73
2020/12/25 07:57:30;;;;;;;2.17;1.52;;;3.50;1.00;;;;;;4983137;28;20318;-72
2020/12/25 07:59:56;;;;;;;3.08;1.30;;;3.50;1.00;;;;;;4979894;28;21084;-73
2020/12/25 08:02:22;;;;;;;2.22;1.17;;;3.60;1.00;;;;;;4980666;28;20240;-73
2020/12/25 08:04:49;;;;;;;2.22;1.27;;;3.60;1.00;;;;;;4985813;28;20307;-73
2020/12/25 08:07:15;;;;;;;1.38;1.10;;;3.70;1.00;;;;;;4989080;28;20227;-73
2020/12/25 08:09:43;;;;;;;1.70;1.17;;;3.70;1.00;;;;;;4984852;28;20220;-73
2020/12/25 08:12:12;;;;;;;1.45;1.35;;;3.70;1.00;;;;;;4984336;28;20250;-74
2020/12/25 08:14:40;;;;;;;1.50;1.40;;;3.70;1.00;;;;;;4983746;28;21096;-74
2020/12/25 08:17:08;;;;;;;2.15;1.48;;;3.70;1.00;;;;;;4983941;28;20254;-73
2020/12/25 08:19:34;;;;;;;1.20;1.10;;;3.70;1.00;;;;;;4978380;28;20238;-73
2020/12/25 08:22:04;;;;;;;3.38;2.08;;;3.70;1.00;;;;;;4993740;28;20253;-72
2020/12/25 08:24:30;;;;;;;3.25;2.53;;;3.70;1.00;;;;;;4984838;28;21028;-73
2020/12/25 08:27:00;;;;;;;4.55;2.72;;;3.70;1.00;;;;;;4983275;28;20226;-72
2020/12/25 08:29:29;;;;;;;2.92;2.00;;;3.70;1.00;;;;;;4983035;28;20314;-72
2020/12/25 08:32:06;;;;;;;2.58;2.38;;;3.80;1.00;;;;;;4984517;28;20239;-72
2020/12/25 08:34:32;;;;;;;5.03;1.55;;;3.80;1.00;;;;;;4987157;28;20226;-72
2020/12/25 08:37:00;;;;;;;1.48;1.38;;;3.90;1.00;;;;;;4981918;28;20223;-75
2020/12/25 08:39:27;;;;;;;3.72;1.52;;;4.00;1.00;;;;;;4986580;28;20283;-75
2020/12/25 08:41:54;;;;;;;3.38;1.70;;;4.00;1.00;;;;;;4985170;28;20331;-72
2020/12/25 08:44:21;;;;;;;2.33;1.80;;;4.00;1.00;;;;;;4995597;28;20232;-71
2020/12/25 08:46:48;;;;;;;2.40;1.50;;;3.90;1.00;;;;;;4995231;28;20227;-73
2020/12/25 08:49:25;;;;;;;2.00;1.50;;;3.90;1.00;;;;;;4989851;28;20451;-72
2020/12/25 08:51:52;;;;;;;2.55;1.40;;;3.90;1.00;;;;;;4985692;28;20227;-74
2020/12/25 08:54:25;;;;;;;1.33;1.23;;;4.00;1.00;;;;;;4984318;28;23805;-73
2020/12/25 08:56:51;;;;;;;2.50;1.30;;;4.00;1.00;;;;;;4985973;28;20323;-72
2020/12/25 08:59:20;;;;;;;2.17;1.27;;;4.00;1.00;;;;;;4985115;28;20240;-73
2020/12/25 09:01:48;;;;;;;2.55;1.65;;;4.00;1.00;;;;;;4986273;28;20318;-73
2020/12/25 09:04:15;;;;;;;2.58;1.25;;;4.00;1.00;;;;;;4983822;28;20227;-73
2020/12/25 09:06:42;;;;;;;6.15;2.35;;;4.00;1.00;;;;;;4983241;28;20382;-73
2020/12/25 09:09:08;;;;;;;1.90;1.67;;;4.00;1.00;;;;;;4987978;28;20284;-73
2020/12/25 09:11:35;;;;;;;2.75;1.70;;;4.00;1.00;;;;;;4979966;28;20234;-72
2020/12/25 09:14:01;;;;;;;5.50;1.70;;;4.00;1.00;;;;;;4982985;28;20458;-72
2020/12/25 09:16:27;;;;;;;2.78;1.60;;;4.10;1.00;;;;;;4979842;28;20219;-72
2020/12/25 09:18:55;;;;;;;2.60;1.67;;;4.10;1.00;;;;;;4979385;28;20223;-72
2020/12/25 09:21:22;;;;;;;3.10;1.95;;;4.00;1.00;;;;;;4980200;28;20227;-72
2020/12/25 09:23:48;;;;;;;2.72;1.90;;;4.00;1.00;;;;;;4985603;28;20952;-72
2020/12/25 09:26:14;;;;;;;8.00;1.83;;;4.00;1.00;;;;;;4987052;28;20233;-71
2020/12/25 09:28:41;;;;;;;3.83;1.92;;;4.00;1.00;;;;;;4984109;28;20228;-72
2020/12/25 09:31:09;;;;;;;1.60;1.50;;;4.10;1.00;;;;;;4983556;28;20938;-72
2020/12/25 09:33:36;;;;;;;3.50;1.60;;;4.30;1.00;;;;;;4985417;28;20236;-72
2020/12/25 09:36:04;;;;;;;3.33;1.80;;;4.40;1.00;;;;;;4982128;28;20223;-70
2020/12/25 09:38:30;;;;;;;4.13;1.80;;;4.50;1.00;;;;;;4978613;28;20232;-72
2020/12/25 09:40:56;;;;;;;3.75;1.48;;;4.60;1.00;;;;;;4982803;28;20238;-71
2020/12/25 09:43:23;;;;;;;2.38;1.58;;;4.60;1.00;;;;;;4980397;28;20641;-71
2020/12/25 09:45:49;;;;;;;3.15;2.10;;;4.70;1.00;;;;;;4981673;28;20726;-71
2020/12/25 09:48:16;;;;;;;1.88;1.60;;;4.80;1.00;;;;;;4987287;28;20324;-72
2020/12/25 09:50:44;;;;;;;2.67;1.60;;;4.80;1.00;;;;;;4978961;28;20267;-73
2020/12/25 09:53:11;;;;;;;3.40;1.70;;;4.80;1.00;;;;;;4992837;28;20254;-73
2020/12/25 09:55:39;;;;;;;2.33;1.70;;;4.90;1.00;;;;;;4991111;28;20234;-74
2020/12/25 09:58:06;;;;;;;2.53;2.10;;;5.00;1.00;;;;;;4995171;28;20975;-74
2020/12/25 10:00:32;;;;;;;1.60;1.30;;;5.00;1.00;;;;;;4995415;28;20243;-73
2020/12/25 10:02:59;;;;;;;1.70;1.48;;;5.10;1.00;;;;;;5000949;28;20334;-72
2020/12/25 10:05:25;;;;;;;3.33;2.13;;;5.10;1.00;;;;;;4987076;28;20347;-72
2020/12/25 10:07:52;;;;;;;3.35;1.85;;;5.20;1.00;;;;;;4985183;28;20235;-72
2020/12/25 10:10:21;;;;;;;3.70;2.10;;;5.30;1.00;;;;;;4993921;28;20255;-73
2020/12/25 10:12:48;;;;;;;1.80;1.70;;;5.30;1.00;;;;;;4993213;28;20236;-73
2020/12/25 10:15:14;;;;;;;3.15;1.95;;;5.20;1.00;;;;;;5002860;28;20220;-74
2020/12/25 10:17:40;;;;;;;4.72;2.47;;;5.30;1.00;;;;;;4992057;28;20247;-73
2020/12/25 10:20:07;;;;;;;2.65;1.52;;;5.30;1.00;;;;;;4985635;28;20760;-73
2020/12/25 10:22:33;;;;;;;2.28;1.80;;;5.30;1.00;;;;;;4989406;28;20243;-72
2020/12/25 10:24:59;;;;;;;1.75;1.35;;;5.20;1.00;;;;;;4986235;28;20326;-72
2020/12/25 10:27:26;;;;;;;2.13;1.70;;;5.10;1.00;;;;;;4988852;28;20283;-73
2020/12/25 10:29:52;;;;;;;2.25;2.05;;;5.00;1.00;;;;;;4989504;28;20223;-72
2020/12/25 10:32:19;;;;;;;2.13;1.45;;;5.00;1.00;;;;;;4991397;28;20241;-71
2020/12/25 10:34:45;;;;;;;1.67;1.52;;;5.10;1.00;;;;;;4991976;28;20298;-72
2020/12/25 10:37:12;;;;;;;4.07;2.08;;;5.20;1.00;;;;;;4990219;28;20321;-71
2020/12/25 10:39:38;;;;;;;4.55;2.38;;;5.20;1.00;;;;;;4987072;28;20591;-73
2020/12/25 10:42:08;;;;;;;1.52;1.42;;;5.30;1.00;;;;;;4988675;28;21407;-73
2020/12/25 10:44:36;;;;;;;4.35;1.85;;;5.30;1.00;;;;;;4986615;28;20234;-74
2020/12/25 10:47:02;;;;;;;2.97;2.00;;;5.40;1.00;;;;;;4986164;28;20301;-72
2020/12/25 10:49:28;;;;;;;2.58;1.65;;;5.40;1.00;;;;;;4987068;28;20231;-72
2020/12/25 10:51:55;;;;;;;12.48;8.80;;;5.50;1.00;;;;;;4982448;28;20320;-72
2020/12/25 10:54:21;;;;;;;3.97;2.83;;;5.50;1.00;;;;;;4990897;28;20231;-73
2020/12/25 10:56:47;;;;;;;2.45;2.20;;;5.60;1.00;;;;;;4988701;28;20295;-75
2020/12/25 10:59:14;;;;;;;4.57;2.53;;;5.80;1.00;;;;;;4983843;28;20246;-72
2020/12/25 11:01:46;;;;;;;4.35;1.50;;;5.90;1.00;;;;;;4997622;28;20295;-72
2020/12/25 11:04:12;;;;;;;2.53;2.17;;;5.80;1.00;;;;;;4996825;28;20266;-73
2020/12/25 11:06:39;;;;;;;3.05;1.77;;;5.80;1.00;;;;;;4999700;28;20246;-73
2020/12/25 11:09:06;;;;;;;2.13;1.70;;;5.80;1.00;;;;;;4997148;28;20326;-74
2020/12/25 11:11:34;;;;;;;6.72;1.60;;;5.70;1.00;;;;;;4991913;28;20330;-74
2020/12/25 11:14:01;;;;;;;2.20;1.90;;;5.70;1.00;;;;;;4987330;28;20686;-71
2020/12/25 11:16:28;;;;;;;2.63;1.70;;;5.60;1.00;;;;;;4994190;28;20232;-73
2020/12/25 11:18:58;;;;;;;2.97;1.77;;;5.60;1.00;;;;;;4997967;28;20376;-72
2020/12/25 11:21:25;;;;;;;2.30;1.52;;;5.60;1.00;;;;;;4994540;28;21794;-72
2020/12/25 11:23:53;;;;;;;3.40;1.50;;;5.60;1.00;;;;;;4990494;28;21155;-72
2020/12/25 11:26:21;;;;;;;2.13;1.92;;;5.60;1.00;;;;;;4988936;28;20228;-71
2020/12/25 11:28:48;;;;;;;2.83;1.90;;;5.60;1.00;;;;;;4990256;28;21104;-73
2020/12/25 11:31:15;;;;;;;2.30;2.10;;;5.60;1.00;;;;;;4989258;28;20235;-72
2020/12/25 11:33:42;;;;;;;3.08;1.77;;;5.50;1.00;;;;;;4990016;28;20242;-72
2020/12/25 11:36:13;;;;;;;1.80;1.50;;;5.50;1.00;;;;;;4997214;28;20262;-72
2020/12/25 11:38:39;;;;;;;3.05;1.35;;;5.60;1.00;;;;;;5001127;28;20788;-72
2020/12/25 11:41:07;;;;;;;4.13;1.30;;;5.50;1.00;;;;;;5005863;28;20299;-73
2020/12/25 11:43:34;;;;;;;1.33;1.23;;;5.50;1.00;;;;;;4992734;28;20232;-72
2020/12/25 11:46:00;;;;;;;2.05;1.55;;;5.40;1.00;;;;;;4988126;28;20314;-72
2020/12/25 11:48:26;;;;;;;2.00;1.80;;;5.20;1.00;;;;;;4981835;28;21298;-72
2020/12/25 11:50:54;;;;;;;4.65;2.25;;;5.10;1.00;;;;;;4986776;28;20219;-72
2020/12/25 11:53:20;;;;;;;3.33;1.83;;;5.20;1.00;;;;;;4987158;28;20232;-72
2020/12/25 11:55:47;;;;;;;2.63;2.00;;;5.20;1.00;;;;;;4985004;28;20228;-73
2020/12/25 11:58:13;;;;;;;3.15;2.33;;;5.20;1.00;;;;;;4984054;28;20216;-71
2020/12/25 12:00:40;;;;;;;4.40;2.58;;;5.10;1.00;;;;;;4988695;28;20230;-71
2020/12/25 12:03:06;;;;;;;1.77;1.67;;;5.00;1.00;;;;;;4985926;28;20277;-72
2020/12/25 12:05:32;;;;;;;2.60;1.90;;;4.80;1.00;;;;;;4984831;28;20258;-71
2020/12/25 12:07:58;;;;;;;3.30;2.67;;;4.70;1.00;;;;;;4984997;28;20715;-71
2020/12/25 12:10:25;;;;;;;4.25;2.72;;;4.70;1.00;;;;;;4983211;28;20323;-72
2020/12/25 12:12:51;;;;;;;3.33;3.03;;;4.80;1.00;;;;;;4982814;28;20243;-72
2020/12/25 12:15:18;;;;;;;3.65;2.35;;;4.70;1.00;;;;;;4992263;28;20735;-71
2020/12/25 12:17:44;;;;;;;3.92;2.60;;;4.60;1.00;;;;;;4984104;28;20285;-72
2020/12/25 12:20:10;;;;;;;3.15;2.00;;;4.50;1.00;;;;;;4990379;28;20277;-72
2020/12/25 12:22:36;;;;;;;2.95;2.40;;;4.50;1.00;;;;;;4988418;28;21114;-71
2020/12/25 12:25:04;;;;;;;2.38;1.80;;;4.50;1.00;;;;;;4984728;28;20870;-71
2020/12/25 12:27:31;;;;;;;2.25;1.20;;;4.50;1.00;;;;;;4985386;28;20223;-72
2020/12/25 12:29:58;;;;;;;2.65;2.00;;;4.50;1.00;;;;;;4981558;28;22823;-73
2020/12/25 12:32:24;;;;;;;2.63;2.08;;;4.50;1.00;;;;;;4988924;28;21132;-72
2020/12/25 12:34:50;;;;;;;2.78;1.70;;;4.40;1.00;;;;;;4978541;28;20246;-71
2020/12/25 12:37:17;;;;;;;2.65;2.45;;;4.40;1.00;;;;;;4980402;28;20326;-71
2020/12/25 12:39:43;;;;;;;3.65;2.05;;;4.40;1.00;;;;;;4983978;28;20219;-72
2020/12/25 12:42:09;;;;;;;2.20;1.85;;;4.50;1.00;;;;;;4982556;28;20284;-71
2020/12/25 12:44:36;;;;;;;3.65;2.33;;;4.50;1.00;;;;;;4986491;28;20220;-72
2020/12/25 12:47:02;;;;;;;5.15;2.03;;;4.50;1.00;;;;;;4984034;28;20306;-73
2020/12/25 12:49:29;;;;;;;3.42;2.10;;;4.50;1.00;;;;;;4994275;28;20871;-73
2020/12/25 12:51:55;;;;;;;2.40;1.98;;;4.60;1.00;;;;;;4977685;28;20323;-73
2020/12/25 12:54:21;;;;;;;2.63;2.03;;;4.60;1.00;;;;;;4984969;28;20300;-73
2020/12/25 12:56:47;;;;;;;2.80;1.80;;;4.60;1.00;;;;;;4985859;28;20231;-76
2020/12/25 12:59:13;;;;;;;1.60;1.45;;;4.50;1.00;;;;;;4998924;28;21150;-73
2020/12/25 13:01:40;;;;;;;2.03;1.30;;;4.50;1.00;;;;;;5000753;28;20312;-73
2020/12/25 13:04:07;;;;;;;1.55;1.45;;;4.60;1.00;;;;;;4992799;28;20378;-74
2020/12/25 13:06:33;;;;;;;2.25;1.63;;;4.60;1.00;;;;;;5000465;28;20279;-75